Time;durP1;ratioP1;P1;durP2;ratioP2;P2;SDS_P1;SDS_P2;PMS_P1;PMS_P2;Temp;Humidity;BMP_temperature;BMP_pressure;BME280_temperature;BME280_humidity;BME280_pressure;Samples;Min_cycle;Max_cycle;Signal;HPM_P1;HPM_P2
2022/01/17 00:01:16;;;;;;;13.15;2.15;;;5.90;99.90;;;;;;5094353;28;20043;-74
2022/01/17 00:03:42;;;;;;;12.98;1.77;;;5.90;99.90;;;;;;5095731;28;20036;-74
2022/01/17 00:06:08;;;;;;;15.20;2.30;;;5.80;99.90;;;;;;5096580;28;20462;-74
2022/01/17 00:08:34;;;;;;;12.45;1.92;;;5.80;99.90;;;;;;5095178;28;20028;-74
2022/01/17 00:11:00;;;;;;;12.50;2.00;;;5.80;99.90;;;;;;5096526;28;20100;-74
2022/01/17 00:13:28;;;;;;;14.25;2.10;;;5.70;99.90;;;;;;5093370;28;20394;-74
2022/01/17 00:16:02;;;;;;;17.23;2.17;;;5.70;99.90;;;;;;5113484;28;20082;-74
2022/01/17 00:21:16;;;;;;;12.30;2.03;;;5.70;99.90;;;;;;5089750;28;20500;-74
2022/01/17 00:23:42;;;;;;;10.45;2.20;;;5.60;99.90;;;;;;5113315;28;20047;-74
2022/01/17 00:26:08;;;;;;;16.95;2.05;;;5.60;99.90;;;;;;5112419;28;20038;-74
2022/01/17 00:28:33;;;;;;;15.60;2.15;;;5.50;99.90;;;;;;5113376;28;20081;-74
2022/01/17 00:31:01;;;;;;;13.80;2.40;;;5.50;99.90;;;;;;5092429;28;20035;-74
2022/01/17 00:33:27;;;;;;;18.35;2.78;;;5.50;99.90;;;;;;5113132;28;20057;-74
2022/01/17 00:35:53;;;;;;;14.95;1.88;;;5.50;99.90;;;;;;5094450;28;20040;-74
2022/01/17 00:38:19;;;;;;;16.08;2.30;;;5.60;99.90;;;;;;5095910;28;20403;-74
2022/01/17 00:40:45;;;;;;;12.70;1.85;;;5.60;99.90;;;;;;5090907;28;20055;-74
2022/01/17 00:43:12;;;;;;;13.30;1.83;;;5.50;99.90;;;;;;5095964;28;20067;-74
2022/01/17 00:45:40;;;;;;;18.13;2.13;;;5.50;99.90;;;;;;5095332;28;20389;-74
2022/01/17 00:48:06;;;;;;;11.98;1.70;;;5.50;99.90;;;;;;5095736;28;20036;-74
2022/01/17 00:50:32;;;;;;;17.08;2.15;;;5.40;99.90;;;;;;5110396;28;20057;-74
2022/01/17 00:53:04;;;;;;;15.23;2.30;;;5.40;99.90;;;;;;5112621;28;20130;-74
2022/01/17 00:55:31;;;;;;;11.82;2.47;;;5.40;99.90;;;;;;5095194;28;20118;-74
2022/01/17 00:57:57;;;;;;;16.80;3.55;;;5.40;99.90;;;;;;5112625;28;20050;-74
2022/01/17 01:00:23;;;;;;;15.50;2.42;;;5.50;99.90;;;;;;5094301;28;20036;-74
2022/01/17 01:02:49;;;;;;;11.23;1.75;;;5.50;99.90;;;;;;5111718;28;20498;-74
2022/01/17 01:05:16;;;;;;;12.50;1.83;;;5.60;99.90;;;;;;5112862;28;20395;-74
2022/01/17 01:07:42;;;;;;;16.10;2.33;;;5.60;99.90;;;;;;5095081;28;20387;-74
2022/01/17 01:10:11;;;;;;;12.98;1.90;;;5.60;99.90;;;;;;5092432;28;20400;-74
2022/01/17 01:12:38;;;;;;;15.48;2.03;;;5.50;99.90;;;;;;5092446;28;20092;-74
2022/01/17 01:15:11;;;;;;;10.18;1.85;;;5.50;99.90;;;;;;5094644;28;20092;-74
2022/01/17 01:17:48;;;;;;;15.82;2.38;;;5.50;99.90;;;;;;5094509;28;20593;-74
2022/01/17 01:28:28;;;;;;;14.90;2.53;;;5.60;99.90;;;;;;5091909;28;20044;-74
2022/01/17 01:30:56;;;;;;;12.18;2.38;;;5.60;99.90;;;;;;5080570;28;20470;-74
2022/01/17 01:33:35;;;;;;;10.25;1.95;;;5.60;99.90;;;;;;5095235;28;20126;-74
2022/01/17 01:36:05;;;;;;;10.05;1.60;;;5.60;99.90;;;;;;5111635;28;20067;-74
2022/01/17 01:38:31;;;;;;;11.98;1.95;;;5.70;99.90;;;;;;5095225;28;20043;-74
2022/01/17 01:40:57;;;;;;;16.08;2.65;;;5.60;99.90;;;;;;5094243;28;20051;-74
2022/01/17 01:43:23;;;;;;;14.07;2.47;;;5.60;99.90;;;;;;5095285;28;20062;-74
2022/01/17 01:45:50;;;;;;;16.75;2.40;;;5.70;99.90;;;;;;5111588;28;20041;-74
2022/01/17 01:48:19;;;;;;;13.30;2.15;;;5.70;99.90;;;;;;5095112;28;20039;-74
2022/01/17 01:50:46;;;;;;;12.90;1.88;;;5.60;99.90;;;;;;5111281;28;20067;-74
2022/01/17 01:53:11;;;;;;;14.02;1.75;;;5.70;99.90;;;;;;5111114;28;20042;-74
2022/01/17 01:55:37;;;;;;;11.57;1.45;;;5.60;99.90;;;;;;5112084;28;20135;-74
2022/01/17 01:58:03;;;;;;;15.20;2.90;;;5.60;99.90;;;;;;5094543;28;20095;-74
2022/01/17 02:00:28;;;;;;;17.20;2.47;;;5.60;99.90;;;;;;5110997;28;20039;-74
2022/01/17 02:02:54;;;;;;;12.70;2.42;;;5.60;99.90;;;;;;5110980;28;20500;-74
2022/01/17 02:05:19;;;;;;;13.38;2.33;;;5.60;99.90;;;;;;5094477;28;20039;-74
2022/01/17 02:07:45;;;;;;;14.55;1.90;;;5.50;99.90;;;;;;5097885;28;20078;-74
2022/01/17 02:10:11;;;;;;;9.95;1.60;;;5.50;99.90;;;;;;5098300;28;20116;-74
2022/01/17 02:12:37;;;;;;;17.10;2.25;;;5.60;99.90;;;;;;5097726;28;20040;-74
2022/01/17 02:15:04;;;;;;;18.60;2.78;;;5.50;99.90;;;;;;5115668;28;20050;-74
2022/01/17 02:17:33;;;;;;;18.13;2.15;;;5.60;99.90;;;;;;5097834;28;20483;-74
2022/01/17 02:20:07;;;;;;;12.77;1.75;;;5.40;99.90;;;;;;5098616;28;20059;-74
2022/01/17 02:22:33;;;;;;;11.20;1.95;;;5.50;99.90;;;;;;5097661;28;20039;-74
2022/01/17 02:24:59;;;;;;;14.48;2.28;;;5.40;99.90;;;;;;5097850;28;20043;-74
2022/01/17 02:27:25;;;;;;;12.52;2.05;;;5.40;99.90;;;;;;5097693;28;20034;-74
2022/01/17 02:29:51;;;;;;;19.55;2.55;;;5.40;99.90;;;;;;5097852;28;20063;-74
2022/01/17 02:32:16;;;;;;;13.07;2.45;;;5.40;99.90;;;;;;5096430;28;20117;-74
2022/01/17 02:34:44;;;;;;;16.67;2.25;;;5.30;99.90;;;;;;5098455;28;20050;-74
2022/01/17 02:37:10;;;;;;;15.15;2.90;;;5.30;99.90;;;;;;5099392;28;20040;-74
2022/01/17 02:39:36;;;;;;;19.55;2.45;;;5.40;99.90;;;;;;5094630;28;20060;-74
2022/01/17 02:42:03;;;;;;;15.25;2.42;;;5.40;99.90;;;;;;5094940;28;20043;-74
2022/01/17 02:44:29;;;;;;;12.63;2.08;;;5.40;99.90;;;;;;5077997;28;20040;-74
2022/01/17 02:46:55;;;;;;;14.82;2.13;;;5.40;99.90;;;;;;5106720;28;20081;-74
2022/01/17 02:49:21;;;;;;;15.05;2.97;;;5.40;99.90;;;;;;5097108;28;20035;-74
2022/01/17 02:51:48;;;;;;;14.88;2.30;;;5.30;99.90;;;;;;5114128;28;20041;-74
2022/01/17 02:54:14;;;;;;;13.38;1.75;;;5.40;99.90;;;;;;5098112;28;20122;-74
2022/01/17 02:56:41;;;;;;;12.70;2.40;;;5.40;99.90;;;;;;5096989;28;20058;-74
2022/01/17 02:59:07;;;;;;;17.73;2.65;;;5.30;99.90;;;;;;5097202;28;20047;-74
2022/01/17 03:01:32;;;;;;;16.02;2.08;;;5.30;99.90;;;;;;5111704;28;20085;-74
2022/01/17 03:03:59;;;;;;;16.63;2.85;;;5.30;99.90;;;;;;5114962;28;20032;-74
2022/01/17 03:06:26;;;;;;;14.07;1.73;;;5.30;99.90;;;;;;5097878;28;20036;-74
2022/01/17 03:08:52;;;;;;;15.43;2.80;;;5.30;99.90;;;;;;5113337;28;20044;-74
2022/01/17 03:11:24;;;;;;;12.82;1.88;;;5.40;99.90;;;;;;5113993;28;20411;-74
2022/01/17 03:13:51;;;;;;;13.07;2.47;;;5.30;99.90;;;;;;5097690;28;20042;-74
2022/01/17 03:16:22;;;;;;;14.20;2.15;;;5.30;99.90;;;;;;5113702;28;20047;-74
2022/01/17 03:18:50;;;;;;;16.63;2.65;;;5.30;99.90;;;;;;5114623;28;20047;-74
2022/01/17 03:21:17;;;;;;;12.20;1.90;;;5.40;99.90;;;;;;5113900;28;20442;-74
2022/01/17 03:23:44;;;;;;;17.45;2.90;;;5.30;99.90;;;;;;5114376;28;20047;-73
2022/01/17 03:26:10;;;;;;;9.00;1.90;;;5.40;99.90;;;;;;5095915;28;20031;-74
2022/01/17 03:28:36;;;;;;;12.07;1.92;;;5.40;99.90;;;;;;5096783;28;20028;-74
2022/01/17 03:31:03;;;;;;;12.25;2.03;;;5.40;99.90;;;;;;5095577;28;20030;-74
2022/01/17 03:33:29;;;;;;;12.10;1.88;;;5.40;99.90;;;;;;5092710;28;20040;-74
2022/01/17 03:35:55;;;;;;;22.15;2.85;;;5.40;99.90;;;;;;5095891;28;20396;-74
2022/01/17 03:38:24;;;;;;;14.68;2.35;;;5.40;99.90;;;;;;5093752;28;20046;-74
2022/01/17 03:40:51;;;;;;;16.83;2.40;;;5.40;99.90;;;;;;5112393;27;20064;-74
2022/01/17 03:43:18;;;;;;;15.13;2.33;;;5.50;99.90;;;;;;5088656;28;20448;-74
2022/01/17 03:45:45;;;;;;;14.48;2.30;;;5.50;99.90;;;;;;5092062;28;20031;-74
2022/01/17 03:48:11;;;;;;;12.43;2.50;;;5.50;99.90;;;;;;5113057;28;20040;-74
2022/01/17 03:50:36;;;;;;;15.10;2.05;;;5.50;99.90;;;;;;5091455;28;20046;-74
2022/01/17 03:53:03;;;;;;;11.55;1.77;;;5.60;99.90;;;;;;5113024;28;20404;-74
2022/01/17 03:55:29;;;;;;;14.32;1.85;;;5.60;99.90;;;;;;5113306;28;20035;-74
2022/01/17 03:57:54;;;;;;;11.98;2.92;;;5.60;99.90;;;;;;5112947;28;20043;-74
2022/01/17 04:00:28;;;;;;;14.73;2.55;;;5.60;99.90;;;;;;5094313;28;20040;-74
2022/01/17 04:02:54;;;;;;;15.88;2.00;;;5.60;99.90;;;;;;5112766;28;20044;-74
2022/01/17 04:05:20;;;;;;;16.85;2.55;;;5.60;99.90;;;;;;5111644;28;20392;-74
2022/01/17 04:07:46;;;;;;;17.73;2.50;;;5.60;99.90;;;;;;5095007;28;20395;-74
2022/01/17 04:10:12;;;;;;;12.75;1.90;;;5.60;99.90;;;;;;5095457;28;20042;-74
2022/01/17 04:12:39;;;;;;;11.68;1.80;;;5.70;99.90;;;;;;5095564;28;20112;-74
2022/01/17 04:15:06;;;;;;;12.38;1.60;;;5.60;99.90;;;;;;5095696;28;20105;-74
2022/01/17 04:17:32;;;;;;;15.55;1.98;;;5.70;99.90;;;;;;5095392;28;20050;-74
2022/01/17 04:20:06;;;;;;;15.30;1.85;;;5.70;99.90;;;;;;5092919;28;20407;-74
2022/01/17 04:22:38;;;;;;;14.32;1.85;;;5.60;99.90;;;;;;5096293;28;20036;-74
2022/01/17 04:25:05;;;;;;;;;;;5.70;99.90;;;;;;5111085;28;20032;-74
2022/01/17 04:27:30;;;;;;;12.07;1.45;;;5.70;99.90;;;;;;5095871;28;19916;-74
2022/01/17 04:29:56;;;;;;;13.05;1.75;;;5.60;99.90;;;;;;5092928;28;20585;-74
2022/01/17 04:32:22;;;;;;;11.93;2.03;;;5.60;99.90;;;;;;5112753;28;20038;-74
2022/01/17 04:34:48;;;;;;;15.95;2.28;;;5.60;99.90;;;;;;5092137;28;20068;-74
2022/01/17 04:37:13;;;;;;;11.30;2.20;;;5.60;99.90;;;;;;5095816;28;20040;-74
2022/01/17 04:39:39;;;;;;;13.32;2.33;;;5.60;99.90;;;;;;5118005;27;20411;-74
2022/01/17 04:42:11;;;;;;;15.30;2.75;;;5.60;99.90;;;;;;5116212;27;20047;-74
2022/01/17 04:47:22;;;;;;;11.05;1.90;;;5.70;99.90;;;;;;5132784;27;19946;-74
2022/01/17 04:49:47;;;;;;;14.32;1.50;;;5.70;99.90;;;;;;5120059;27;20059;-74
2022/01/17 04:52:14;;;;;;;15.48;2.30;;;5.70;99.90;;;;;;5112810;27;20118;-74
2022/01/17 04:54:42;;;;;;;9.25;1.67;;;5.80;99.90;;;;;;5114763;27;20402;-74
2022/01/17 04:57:10;;;;;;;13.25;1.50;;;5.80;99.90;;;;;;5114737;27;20042;-74
2022/01/17 04:59:36;;;;;;;10.70;2.00;;;5.80;99.90;;;;;;5098338;27;20060;-74
2022/01/17 05:02:03;;;;;;;10.52;1.90;;;5.80;99.90;;;;;;5097367;27;20095;-74
2022/01/17 05:04:29;;;;;;;14.13;2.00;;;5.90;99.90;;;;;;5121716;27;20444;-74
2022/01/17 05:06:55;;;;;;;7.28;1.65;;;5.90;99.90;;;;;;5119379;27;20121;-74
2022/01/17 05:09:20;;;;;;;14.23;2.42;;;6.00;99.90;;;;;;5097367;27;20034;-74
2022/01/17 05:11:46;;;;;;;12.23;1.88;;;6.00;99.90;;;;;;5125841;27;20043;-74
2022/01/17 05:14:12;;;;;;;13.45;1.85;;;6.00;99.90;;;;;;5098745;27;20038;-74
2022/01/17 05:16:45;;;;;;;18.17;1.92;;;6.00;99.90;;;;;;5110749;28;20038;-74
2022/01/17 05:21:55;;;;;;;10.77;1.73;;;6.10;99.90;;;;;;5131422;27;20407;-74
2022/01/17 05:24:20;;;;;;;13.93;2.00;;;6.10;99.90;;;;;;5113442;28;20031;-74
2022/01/17 05:26:46;;;;;;;15.70;2.20;;;6.10;99.90;;;;;;5105230;28;20043;-74
2022/01/17 05:29:12;;;;;;;12.18;2.53;;;6.10;99.90;;;;;;5095422;28;20042;-74
2022/01/17 05:31:38;;;;;;;13.73;2.50;;;6.20;99.90;;;;;;5111912;28;20062;-74
2022/01/17 05:34:03;;;;;;;14.50;2.60;;;6.20;99.90;;;;;;5095254;28;20032;-74
2022/01/17 05:36:29;;;;;;;12.90;2.53;;;6.10;99.90;;;;;;5125670;28;20488;-74
2022/01/17 05:38:54;;;;;;;14.25;2.30;;;6.20;99.90;;;;;;5102729;28;20391;-74
2022/01/17 05:41:20;;;;;;;11.95;2.75;;;6.30;99.90;;;;;;5121079;27;20043;-74
2022/01/17 05:43:46;;;;;;;18.10;3.22;;;6.30;99.90;;;;;;5119807;27;20043;-74
2022/01/17 05:46:11;;;;;;;16.75;2.58;;;6.30;99.90;;;;;;5106256;27;20036;-74
2022/01/17 05:48:38;;;;;;;12.88;2.45;;;6.30;99.90;;;;;;5119727;27;20168;-74
2022/01/17 05:51:03;;;;;;;12.40;2.20;;;6.30;99.90;;;;;;5108404;27;20043;-74
2022/01/17 05:53:29;;;;;;;16.35;3.25;;;6.20;99.90;;;;;;5119652;27;20046;-74
2022/01/17 05:55:54;;;;;;;14.20;2.70;;;6.40;99.90;;;;;;5118269;27;20035;-74
2022/01/17 05:58:20;;;;;;;14.95;2.85;;;6.30;99.90;;;;;;5102917;27;20471;-74
2022/01/17 06:00:46;;;;;;;18.02;3.00;;;6.40;99.90;;;;;;5100923;27;20126;-74
2022/01/17 06:03:11;;;;;;;17.83;3.13;;;6.30;99.90;;;;;;5101513;27;20468;-74
2022/01/17 06:05:37;;;;;;;15.30;3.22;;;6.30;99.90;;;;;;5116176;27;20048;-74
2022/01/17 06:08:03;;;;;;;14.75;2.58;;;6.40;99.90;;;;;;5119647;27;20486;-74
2022/01/17 06:10:28;;;;;;;18.63;3.65;;;6.40;99.90;;;;;;5115373;27;20046;-74
2022/01/17 06:12:55;;;;;;;15.15;2.67;;;6.40;99.90;;;;;;5118068;27;20043;-74
2022/01/17 06:15:21;;;;;;;19.77;3.65;;;6.40;99.90;;;;;;5104458;27;20043;-74
2022/01/17 06:17:47;;;;;;;16.40;3.50;;;6.40;99.90;;;;;;5118733;27;20047;-74
2022/01/17 06:20:13;;;;;;;19.77;3.63;;;6.50;99.90;;;;;;5119208;27;20487;-74
2022/01/17 06:22:38;;;;;;;17.85;3.90;;;6.40;99.90;;;;;;5102105;27;20031;-74
2022/01/17 06:25:04;;;;;;;16.73;3.15;;;6.40;99.90;;;;;;5121135;27;20038;-74
2022/01/17 06:27:30;;;;;;;15.82;2.80;;;6.40;99.90;;;;;;5122165;27;20058;-74
2022/01/17 06:29:57;;;;;;;11.55;2.50;;;6.40;99.90;;;;;;5120222;27;20035;-74
2022/01/17 06:32:23;;;;;;;18.85;4.03;;;6.40;99.90;;;;;;5118652;27;20554;-74
2022/01/17 06:34:49;;;;;;;16.90;3.05;;;6.40;99.90;;;;;;5102215;27;20070;-74
2022/01/17 06:37:15;;;;;;;13.60;3.22;;;6.40;99.90;;;;;;5105580;27;20092;-74
2022/01/17 06:39:40;;;;;;;17.13;2.78;;;6.40;99.90;;;;;;5097724;28;20055;-74
2022/01/17 06:42:06;;;;;;;18.58;3.05;;;6.40;99.90;;;;;;5111276;28;20604;-74
2022/01/17 06:44:32;;;;;;;16.77;3.53;;;6.40;99.90;;;;;;5112321;28;20058;-74
2022/01/17 06:46:58;;;;;;;14.82;3.10;;;6.40;99.90;;;;;;5113171;28;20038;-74
2022/01/17 06:49:24;;;;;;;20.73;3.15;;;6.40;99.90;;;;;;5114043;28;20032;-74
2022/01/17 06:51:49;;;;;;;17.52;2.70;;;6.40;99.90;;;;;;5092834;28;20042;-74
2022/01/17 06:54:15;;;;;;;17.27;3.90;;;6.50;99.90;;;;;;5113834;28;20045;-74
2022/01/17 06:56:44;;;;;;;14.65;3.28;;;6.50;99.90;;;;;;5088454;28;20058;-74
2022/01/17 06:59:13;;;;;;;16.77;3.22;;;6.50;99.90;;;;;;5097174;28;20454;-74
2022/01/17 07:01:39;;;;;;;18.08;4.38;;;6.40;99.90;;;;;;5110373;28;20036;-74
2022/01/17 07:04:05;;;;;;;21.00;4.15;;;6.40;99.90;;;;;;5110177;28;20031;-74
2022/01/17 07:06:31;;;;;;;22.83;3.42;;;6.40;99.90;;;;;;5091182;28;20055;-74
2022/01/17 07:08:57;;;;;;;13.48;2.88;;;6.40;99.90;;;;;;5092983;28;20479;-74
2022/01/17 07:11:22;;;;;;;19.08;3.85;;;6.50;99.90;;;;;;5107614;28;20039;-74
2022/01/17 07:13:48;;;;;;;16.77;3.47;;;6.40;99.90;;;;;;5112644;28;20032;-74
2022/01/17 07:16:14;;;;;;;14.90;3.85;;;6.50;99.90;;;;;;5095696;28;20036;-74
2022/01/17 07:18:40;;;;;;;15.88;3.03;;;6.40;99.90;;;;;;5095499;28;20075;-74
2022/01/17 07:21:06;;;;;;;22.63;4.10;;;6.50;99.90;;;;;;5112331;28;20077;-74
2022/01/17 07:23:32;;;;;;;20.45;3.53;;;6.50;99.90;;;;;;5112506;28;20036;-74
2022/01/17 07:25:58;;;;;;;21.08;4.55;;;6.50;99.90;;;;;;5095236;28;20032;-74
2022/01/17 07:28:23;;;;;;;24.40;4.35;;;6.50;99.90;;;;;;5112149;28;20028;-74
2022/01/17 07:30:49;;;;;;;23.42;3.70;;;6.50;99.90;;;;;;5094545;28;20088;-74
2022/01/17 07:33:15;;;;;;;20.65;3.42;;;6.60;99.90;;;;;;5111539;28;20054;-74
2022/01/17 07:35:41;;;;;;;18.48;3.15;;;6.50;99.90;;;;;;5111737;28;20043;-74
2022/01/17 07:38:07;;;;;;;15.85;3.38;;;6.50;99.90;;;;;;5112404;28;20519;-74
2022/01/17 07:40:34;;;;;;;18.92;3.03;;;6.60;99.90;;;;;;5059040;28;1045014;-74
2022/01/17 07:43:00;;;;;;;16.45;3.50;;;6.60;99.90;;;;;;5095558;28;20488;-74
2022/01/17 07:45:27;;;;;;;18.23;3.53;;;6.60;99.90;;;;;;5111497;28;20115;-74
2022/01/17 07:50:21;;;;;;;19.17;3.45;;;6.60;99.90;;;;;;5112791;28;20035;-74
2022/01/17 07:52:48;;;;;;;22.80;4.43;;;6.70;99.90;;;;;;5111111;28;20035;-74
2022/01/17 07:55:15;;;;;;;23.83;3.20;;;6.70;99.90;;;;;;5111227;28;20487;-74
2022/01/17 07:57:41;;;;;;;18.75;3.40;;;6.70;99.90;;;;;;5110934;28;20054;-74
2022/01/17 08:00:10;;;;;;;17.17;3.15;;;6.70;99.90;;;;;;5092669;28;20095;-74
2022/01/17 08:02:35;;;;;;;19.70;3.92;;;6.70;99.90;;;;;;5103277;28;20039;-74
2022/01/17 08:05:02;;;;;;;22.85;3.83;;;6.80;99.90;;;;;;5094481;28;20131;-74
2022/01/17 08:07:28;;;;;;;20.30;2.70;;;6.80;99.90;;;;;;5095733;28;20043;-74
2022/01/17 08:09:53;;;;;;;21.90;3.97;;;6.80;99.90;;;;;;5110467;28;20039;-74
2022/01/17 08:12:19;;;;;;;19.95;3.40;;;6.80;99.90;;;;;;5092367;28;20055;-74
2022/01/17 08:14:45;;;;;;;26.38;4.13;;;6.80;99.90;;;;;;5112330;28;20044;-74
2022/01/17 08:17:11;;;;;;;26.02;3.55;;;6.70;99.90;;;;;;5095698;28;20035;-75
2022/01/17 08:19:37;;;;;;;18.13;3.75;;;6.70;99.90;;;;;;5112155;28;20043;-74
2022/01/17 08:22:05;;;;;;;19.25;3.50;;;6.80;99.90;;;;;;5094652;28;20046;-74
2022/01/17 08:24:34;;;;;;;22.58;3.45;;;6.80;99.90;;;;;;5095086;28;20035;-74
2022/01/17 08:27:01;;;;;;;22.67;4.28;;;6.70;99.90;;;;;;5109923;28;20462;-74
2022/01/17 08:29:28;;;;;;;21.92;4.13;;;6.80;99.90;;;;;;5093275;28;20119;-74
2022/01/17 08:31:55;;;;;;;16.90;3.33;;;6.80;99.90;;;;;;5091106;28;20504;-69
2022/01/17 08:34:20;;;;;;;23.42;3.75;;;6.80;99.90;;;;;;5110560;28;20543;-69
2022/01/17 08:36:47;;;;;;;23.15;5.07;;;6.80;99.90;;;;;;5092680;28;20031;-74
2022/01/17 08:39:13;;;;;;;19.75;3.80;;;6.90;99.90;;;;;;5093502;28;20055;-75
2022/01/17 08:41:42;;;;;;;23.25;3.17;;;6.90;99.90;;;;;;5092696;28;20118;-75
2022/01/17 08:44:14;;;;;;;19.90;3.20;;;6.90;99.90;;;;;;5106376;28;20036;-74
2022/01/17 08:46:40;;;;;;;;;;;6.90;99.90;;;;;;5093586;28;20391;-75
2022/01/17 08:49:05;;;;;;;22.40;3.03;;;6.90;99.90;;;;;;5107741;28;20003;-74
2022/01/17 08:51:31;;;;;;;21.00;3.53;;;6.90;99.90;;;;;;5111516;28;20097;-75
2022/01/17 08:53:57;;;;;;;26.45;4.60;;;7.00;99.90;;;;;;5110418;28;20047;-75
2022/01/17 08:56:22;;;;;;;21.25;3.88;;;7.00;99.90;;;;;;5111170;28;20083;-74
2022/01/17 08:58:48;;;;;;;23.30;5.43;;;7.00;99.90;;;;;;5093930;28;20053;-74
2022/01/17 09:01:14;;;;;;;26.58;4.38;;;7.10;99.90;;;;;;5108905;28;20040;-75
2022/01/17 09:03:41;;;;;;;19.85;3.67;;;7.10;99.90;;;;;;5093124;28;20119;-75
2022/01/17 09:06:07;;;;;;;19.23;2.97;;;7.10;99.90;;;;;;5107934;28;20039;-75
2022/01/17 09:08:32;;;;;;;26.20;3.63;;;7.20;99.90;;;;;;5103573;28;20034;-75
2022/01/17 09:10:58;;;;;;;25.20;3.47;;;7.20;99.90;;;;;;5094757;28;20113;-75
2022/01/17 09:13:25;;;;;;;25.40;4.35;;;7.20;99.90;;;;;;5111083;28;20070;-75
2022/01/17 09:15:52;;;;;;;32.63;5.00;;;7.30;99.90;;;;;;5107337;28;20044;-74
2022/01/17 09:18:19;;;;;;;21.73;4.15;;;7.30;99.90;;;;;;5108786;28;20028;-75
2022/01/17 09:20:45;;;;;;;23.88;3.35;;;7.40;99.90;;;;;;5092674;28;20458;-75
2022/01/17 09:23:11;;;;;;;23.15;3.65;;;7.50;99.90;;;;;;5110051;28;20036;-75
2022/01/17 09:25:37;;;;;;;28.25;3.30;;;7.50;99.90;;;;;;5091047;28;20051;-75
2022/01/17 09:28:03;;;;;;;32.92;4.55;;;7.60;99.90;;;;;;5108423;28;20064;-75
2022/01/17 09:30:29;;;;;;;29.83;4.25;;;7.60;99.90;;;;;;5108392;28;20087;-75
2022/01/17 09:32:55;;;;;;;29.13;4.28;;;7.70;99.90;;;;;;5110474;28;20047;-75
2022/01/17 09:35:21;;;;;;;24.33;4.03;;;7.80;99.90;;;;;;5108601;28;20038;-74
2022/01/17 09:37:46;;;;;;;29.33;4.32;;;7.80;99.90;;;;;;5109252;28;20035;-75
2022/01/17 09:40:12;;;;;;;18.05;3.42;;;7.90;99.90;;;;;;5092155;28;20103;-75
2022/01/17 09:42:39;;;;;;;23.75;3.70;;;7.90;99.90;;;;;;5108666;28;20530;-75
2022/01/17 09:45:06;;;;;;;29.10;3.88;;;8.00;99.90;;;;;;5110896;28;20169;-75
2022/01/17 09:47:34;;;;;;;32.10;4.90;;;8.10;99.90;;;;;;5091839;28;20039;-75
2022/01/17 09:50:06;;;;;;;29.08;5.35;;;8.10;99.90;;;;;;5091960;28;20039;-75
2022/01/17 09:52:36;;;;;;;22.27;3.72;;;8.20;99.90;;;;;;5109053;28;20054;-75
2022/01/17 09:55:21;;;;;;;25.35;4.40;;;8.20;99.90;;;;;;5105792;28;20126;-75
2022/01/17 09:58:05;;;;;;;34.50;5.18;;;8.30;99.90;;;;;;5106314;28;20079;-75
2022/01/17 10:00:37;;;;;;;29.30;4.47;;;8.30;99.90;;;;;;5104524;28;20035;-75
2022/01/17 10:03:06;;;;;;;27.75;4.18;;;8.30;99.90;;;;;;5110655;28;20044;-74
2022/01/17 10:05:33;;;;;;;21.73;3.28;;;8.40;99.90;;;;;;5094027;28;20123;-75
2022/01/17 10:08:04;;;;;;;23.77;4.28;;;8.40;99.90;;;;;;5096500;28;20036;-75
2022/01/17 10:10:36;;;;;;;30.73;5.60;;;8.50;99.90;;;;;;5089833;28;20035;-75
2022/01/17 10:13:07;;;;;;;31.95;5.82;;;8.40;99.90;;;;;;5088917;28;20067;-74
2022/01/17 10:15:45;;;;;;;20.75;4.82;;;8.50;99.90;;;;;;5104140;28;20122;-75
2022/01/17 10:18:37;;;;;;;27.25;4.18;;;8.50;99.90;;;;;;5108515;28;20055;-75
2022/01/17 10:21:23;;;;;;;34.88;5.32;;;8.60;99.90;;;;;;5091709;28;20047;-75
2022/01/17 10:35:36;;;;;;;22.42;4.15;;;8.80;99.90;;;;;;5110899;28;20048;-75
2022/01/17 10:38:11;;;;;;;27.65;5.70;;;8.90;99.90;;;;;;5096503;28;20555;-75
2022/01/17 10:40:45;;;;;;;30.92;5.07;;;8.80;99.90;;;;;;5095776;28;20055;-74
2022/01/17 10:43:28;;;;;;;32.33;5.53;;;8.80;99.90;;;;;;5096016;28;20507;-75
2022/01/17 10:45:56;;;;;;;28.23;4.55;;;8.80;99.90;;;;;;5095879;28;20035;-75
2022/01/17 10:48:28;;;;;;;28.05;4.38;;;8.90;99.90;;;;;;5097317;28;20130;-74
2022/01/17 10:50:54;;;;;;;25.70;4.65;;;9.00;99.90;;;;;;5093492;28;20040;-75
2022/01/17 10:53:20;;;;;;;16.98;3.10;;;9.00;99.90;;;;;;5096277;28;20036;-75
2022/01/17 10:55:52;;;;;;;35.85;6.78;;;9.10;99.90;;;;;;5089227;28;20050;-74
2022/01/17 10:58:25;;;;;;;25.15;4.43;;;9.00;99.90;;;;;;5088209;28;20054;-75
2022/01/17 11:00:55;;;;;;;28.33;4.35;;;9.00;99.90;;;;;;5113892;28;20043;-74
2022/01/17 11:03:30;;;;;;;32.95;5.35;;;8.90;99.90;;;;;;5108202;28;20035;-75
2022/01/17 11:06:00;;;;;;;27.17;4.88;;;8.90;99.90;;;;;;5093409;28;20051;-75
2022/01/17 11:08:27;;;;;;;35.35;6.05;;;8.90;99.90;;;;;;5112522;28;20487;-75
2022/01/17 11:10:56;;;;;;;29.23;4.78;;;9.00;99.90;;;;;;5095896;28;20036;-75
2022/01/17 11:13:28;;;;;;;34.92;5.80;;;9.00;99.90;;;;;;5111291;28;20488;-71
2022/01/17 11:15:55;;;;;;;34.00;4.37;;;9.10;99.90;;;;;;5111879;28;20639;-75
2022/01/17 11:18:25;;;;;;;32.00;6.03;;;9.00;99.90;;;;;;5094738;28;20062;-76
2022/01/17 11:21:00;;;;;;;32.25;5.55;;;9.10;99.90;;;;;;5093520;28;20051;-76
2022/01/17 11:23:27;;;;;;;34.05;6.00;;;9.10;99.90;;;;;;5095059;28;20046;-75
2022/01/17 11:25:55;;;;;;;37.95;6.63;;;9.30;99.90;;;;;;5093476;28;20044;-76
2022/01/17 11:28:23;;;;;;;29.65;5.53;;;9.30;99.90;;;;;;5111687;28;20051;-75
2022/01/17 11:30:52;;;;;;;30.25;5.63;;;9.30;99.90;;;;;;5112231;28;20035;-73
2022/01/17 11:33:17;;;;;;;32.40;5.63;;;9.30;99.90;;;;;;5092654;28;20051;-75
2022/01/17 11:35:45;;;;;;;34.40;5.88;;;9.30;99.90;;;;;;5111045;28;20047;-74
2022/01/17 11:38:19;;;;;;;25.45;4.57;;;9.30;99.90;;;;;;5108827;28;20050;-75
2022/01/17 11:40:45;;;;;;;24.35;5.10;;;9.30;99.90;;;;;;5095448;28;20062;-75
2022/01/17 11:43:34;;;;;;;37.17;6.95;;;9.30;99.90;;;;;;5112434;28;20150;-75
2022/01/17 11:46:21;;;;;;;29.55;4.55;;;9.40;99.90;;;;;;5111184;28;20428;-74
2022/01/17 11:48:55;;;;;;;32.53;5.03;;;9.30;99.90;;;;;;5094583;28;20035;-75
2022/01/17 11:51:21;;;;;;;34.20;4.90;;;9.40;99.90;;;;;;5112825;28;20606;-74
2022/01/17 11:53:49;;;;;;;36.53;5.72;;;9.40;99.90;;;;;;5112313;28;20092;-74
2022/01/17 11:56:35;;;;;;;23.40;5.38;;;9.40;99.90;;;;;;5088540;28;20036;-74
2022/01/17 11:59:01;;;;;;;35.05;5.68;;;9.40;99.90;;;;;;5112137;28;20040;-74
2022/01/17 12:01:26;;;;;;;32.35;7.32;;;9.40;99.90;;;;;;5113263;28;20043;-74
2022/01/17 12:03:54;;;;;;;29.15;5.18;;;9.40;99.90;;;;;;5109820;28;20040;-75
2022/01/17 12:06:35;;;;;;;35.75;5.95;;;9.30;99.90;;;;;;5110864;28;20084;-74
2022/01/17 12:09:23;;;;;;;39.70;7.15;;;9.30;99.90;;;;;;5110223;28;20058;-74
2022/01/17 12:12:07;;;;;;;28.45;4.78;;;9.30;99.90;;;;;;5109943;28;20506;-74
2022/01/17 12:14:51;;;;;;;34.22;5.47;;;9.40;99.90;;;;;;5099074;28;20520;-75
2022/01/17 12:17:23;;;;;;;23.92;5.03;;;9.40;99.90;;;;;;5103991;28;20043;-74
2022/01/17 12:20:09;;;;;;;27.48;6.00;;;9.30;99.90;;;;;;5080298;28;20396;-75
2022/01/17 12:22:46;;;;;;;36.47;5.07;;;9.40;99.90;;;;;;5074550;28;20051;-74
2022/01/17 12:25:21;;;;;;;32.50;6.35;;;9.40;99.90;;;;;;5078836;28;20036;-75
2022/01/17 12:27:49;;;;;;;30.52;5.20;;;9.30;99.90;;;;;;5074792;28;20050;-75
2022/01/17 12:30:15;;;;;;;33.95;5.53;;;9.40;99.90;;;;;;5091145;28;20085;-74
2022/01/17 12:32:45;;;;;;;31.60;5.57;;;9.40;99.90;;;;;;5091354;28;20389;-74
2022/01/17 12:35:20;;;;;;;31.88;5.25;;;9.30;99.90;;;;;;5075245;28;20518;-75
2022/01/17 12:38:05;;;;;;;23.83;3.95;;;9.40;99.90;;;;;;5091243;28;20047;-74
2022/01/17 12:40:42;;;;;;;21.98;4.47;;;9.40;99.90;;;;;;5091119;28;20127;-75
2022/01/17 12:43:16;;;;;;;32.58;5.72;;;9.40;99.90;;;;;;5090764;28;20036;-74
2022/01/17 12:45:44;;;;;;;26.50;6.00;;;9.40;99.90;;;;;;5074750;28;20105;-74
2022/01/17 12:48:16;;;;;;;24.80;5.57;;;9.40;99.90;;;;;;5100114;28;20096;-74
2022/01/17 12:50:44;;;;;;;25.43;4.93;;;9.30;99.90;;;;;;5104097;28;20115;-75
2022/01/17 12:53:13;;;;;;;28.95;5.45;;;9.30;99.90;;;;;;5097520;28;20047;-75
2022/01/17 12:55:41;;;;;;;37.28;5.65;;;9.30;99.90;;;;;;5103607;28;20047;-74
2022/01/17 12:58:28;;;;;;;28.45;5.65;;;9.30;99.90;;;;;;5073880;28;20043;-75
2022/01/17 13:01:01;;;;;;;34.33;6.03;;;9.30;99.90;;;;;;5084930;28;20377;-74
2022/01/17 13:03:32;;;;;;;30.30;5.65;;;9.30;99.90;;;;;;5108613;28;20078;-75
2022/01/17 13:06:00;;;;;;;30.42;4.85;;;9.20;99.90;;;;;;5096640;28;20503;-74
2022/01/17 13:08:26;;;;;;;24.17;4.43;;;9.20;99.90;;;;;;5109791;28;20046;-75
2022/01/17 13:10:52;;;;;;;32.30;4.82;;;9.30;99.90;;;;;;5112289;28;20076;-74
2022/01/17 13:13:18;;;;;;;27.33;4.97;;;9.30;99.90;;;;;;5092977;28;20092;-74
2022/01/17 13:15:57;;;;;;;26.73;4.43;;;9.30;99.90;;;;;;5110742;28;20050;-74
2022/01/17 13:18:23;;;;;;;25.35;4.45;;;9.30;99.90;;;;;;5111249;28;20077;-74
2022/01/17 13:20:49;;;;;;;28.20;4.35;;;9.30;99.90;;;;;;5111001;28;20032;-75
2022/01/17 13:23:18;;;;;;;27.10;4.80;;;9.30;99.90;;;;;;5111225;28;20080;-74